Time;durP1;ratioP1;P1;durP2;ratioP2;P2;SDS_P1;SDS_P2;PMS_P1;PMS_P2;Temp;Humidity;BMP_temperature;BMP_pressure;BME280_temperature;BME280_humidity;BME280_pressure;Samples;Min_cycle;Max_cycle;Signal;HPM_P1;HPM_P2
2022/03/12 00:02:14;;;;;;;25.50;16.25;;;1.70;88.10;;;;;;5035713;28;20466;-47
2022/03/12 00:04:41;;;;;;;23.73;16.25;;;1.60;89.00;;;;;;5035678;28;20033;-47
2022/03/12 00:07:11;;;;;;;28.52;16.63;;;1.60;88.60;;;;;;5039894;28;20474;-47
2022/03/12 00:09:37;;;;;;;27.90;17.27;;;1.50;88.80;;;;;;5036249;28;20461;-48
2022/03/12 00:12:03;;;;;;;26.90;17.30;;;1.50;89.80;;;;;;5038889;28;20029;-47
2022/03/12 00:14:30;;;;;;;27.88;17.15;;;1.60;90.10;;;;;;5039660;28;20034;-47
2022/03/12 00:16:56;;;;;;;28.80;16.80;;;1.40;96.40;;;;;;5039541;28;20060;-52
2022/03/12 00:19:21;;;;;;;30.58;18.02;;;1.30;89.80;;;;;;5040757;28;20025;-48
2022/03/12 00:21:49;;;;;;;26.08;16.58;;;1.40;89.20;;;;;;5086760;28;20044;-48
2022/03/12 00:24:17;;;;;;;27.35;17.52;;;1.40;89.50;;;;;;5037360;28;20094;-48
2022/03/12 00:26:50;;;;;;;23.70;16.13;;;1.40;89.80;;;;;;5038118;28;20037;-47
2022/03/12 00:29:16;;;;;;;23.75;15.15;;;1.40;89.70;;;;;;5039369;28;20034;-47
2022/03/12 00:31:46;;;;;;;26.90;16.80;;;1.00;90.30;;;;;;5038047;28;20057;-46
2022/03/12 00:34:13;;;;;;;25.00;16.55;;;;;;;;;;5038060;28;20036;-48
2022/03/12 00:36:39;;;;;;;26.40;16.02;;;;;;;;;;5036038;28;20028;-48
2022/03/12 00:39:08;;;;;;;26.65;17.35;;;0.70;91.00;;;;;;5039489;28;20053;-47
2022/03/12 00:41:36;;;;;;;24.25;16.55;;;0.70;91.20;;;;;;5038634;28;20369;-48
2022/03/12 00:44:03;;;;;;;27.73;15.73;;;0.90;90.90;;;;;;5039503;28;20041;-48
2022/03/12 00:46:28;;;;;;;26.40;16.20;;;0.80;91.00;;;;;;5038692;28;20029;-47
2022/03/12 00:48:54;;;;;;;26.52;17.15;;;0.70;90.90;;;;;;5087418;28;20049;-47
2022/03/12 00:51:20;;;;;;;29.15;17.23;;;0.80;90.90;;;;;;5035923;28;20032;-47
2022/03/12 00:53:46;;;;;;;27.55;16.95;;;;;;;;;;5087341;28;20029;-47
2022/03/12 00:56:12;;;;;;;29.70;16.80;;;;;;;;;;5038025;28;20036;-47
2022/03/12 00:58:39;;;;;;;27.00;15.88;;;;;;;;;;5027481;28;20033;-47
2022/03/12 01:01:06;;;;;;;29.58;18.27;;;;;;;;;;5034323;28;20099;-48
2022/03/12 01:03:32;;;;;;;28.55;16.85;;;;;;;;;;5038113;28;20021;-48
2022/03/12 01:06:02;;;;;;;31.50;18.17;;;;;;;;;;5037824;28;20029;-47
2022/03/12 01:08:29;;;;;;;33.35;20.05;;;0.40;90.50;;;;;;5037432;28;20477;-47
2022/03/12 01:10:58;;;;;;;28.48;17.08;;;0.40;91.70;;;;;;5035851;28;20030;-47
2022/03/12 01:13:24;;;;;;;29.02;17.42;;;0.50;91.10;;;;;;5036546;28;20065;-48
2022/03/12 01:15:50;;;;;;;29.13;18.15;;;0.50;90.90;;;;;;5039974;28;20024;-47
2022/03/12 01:18:20;;;;;;;35.35;18.90;;;0.60;90.90;;;;;;5038104;28;20025;-47
2022/03/12 01:20:48;;;;;;;27.52;17.05;;;0.40;91.00;;;;;;5034822;28;20022;-47
2022/03/12 01:23:16;;;;;;;29.73;18.63;;;0.40;91.00;;;;;;5036449;28;20033;-47
2022/03/12 01:25:43;;;;;;;26.73;18.02;;;0.20;91.40;;;;;;5039149;28;20465;-47
2022/03/12 01:28:10;;;;;;;28.27;18.27;;;0.00;91.70;;;;;;5038142;28;20041;-47
2022/03/12 01:30:37;;;;;;;29.15;18.42;;;0.10;91.50;;;;;;5037514;28;20029;-48
2022/03/12 01:33:04;;;;;;;37.70;21.30;;;0.00;91.60;;;;;;5035523;28;20053;-47
2022/03/12 01:35:30;;;;;;;32.25;20.90;;;0.20;91.50;;;;;;5038681;28;20034;-48
2022/03/12 01:37:56;;;;;;;32.40;19.83;;;0.20;91.50;;;;;;5036792;28;20385;-47
2022/03/12 01:40:22;;;;;;;30.35;20.48;;;0.20;91.60;;;;;;5038347;28;20021;-47
2022/03/12 01:42:48;;;;;;;28.33;18.40;;;;;;;;;;5032767;28;20045;-48
2022/03/12 01:45:27;;;;;;;28.17;18.40;;;0.00;99.90;;;;;;5038398;28;20025;-48
2022/03/12 01:47:57;;;;;;;28.35;18.50;;;-0.20;92.30;;;;;;5038032;28;20072;-47
2022/03/12 01:50:26;;;;;;;28.85;16.27;;;-0.10;92.20;;;;;;5035933;28;20037;-47
2022/03/12 01:52:54;;;;;;;33.67;18.75;;;;;;;;;;5024595;28;20042;-49
2022/03/12 01:55:21;;;;;;;29.45;20.02;;;;;;;;;;5034375;28;20028;-48
2022/03/12 01:57:47;;;;;;;25.25;16.85;;;;;;;;;;5039388;28;20103;-47
2022/03/12 02:00:24;;;;;;;30.52;18.38;;;;;;;;;;5036137;28;20025;-48
2022/03/12 02:02:54;;;;;;;32.17;18.65;;;;;;;;;;5038688;28;20109;-48
2022/03/12 02:05:21;;;;;;;31.65;19.35;;;;;;;;;;5039264;28;20425;-48
2022/03/12 02:07:47;;;;;;;28.95;18.42;;;;;;;;;;5054162;28;20056;-47
2022/03/12 02:10:18;;;;;;;30.88;18.92;;;;;;;;;;5082229;28;20049;-47
2022/03/12 02:12:44;;;;;;;35.15;21.75;;;;;;;;;;5082343;28;20049;-48
2022/03/12 02:15:10;;;;;;;34.80;22.80;;;;;;;;;;5036649;28;20033;-47
2022/03/12 02:17:38;;;;;;;34.25;22.27;;;;;;;;;;5084614;28;20037;-48
2022/03/12 02:20:06;;;;;;;32.10;23.27;;;;;;;;;;5034098;28;20065;-47
2022/03/12 02:22:32;;;;;;;31.70;21.30;;;;;;;;;;5083847;28;20033;-47
2022/03/12 02:24:58;;;;;;;31.10;20.42;;;;;;;;;;5039219;28;20079;-47
2022/03/12 02:27:25;;;;;;;33.47;20.10;;;;;;;;;;5039543;28;20033;-47
2022/03/12 02:29:57;;;;;;;31.50;19.27;;;;;;;;;;5032136;28;20033;-48
2022/03/12 02:32:23;;;;;;;29.58;19.73;;;;;;;;;;5034563;28;20116;-47
2022/03/12 02:34:50;;;;;;;28.23;17.98;;;;;;;;;;5029831;28;20061;-48
2022/03/12 02:37:33;;;;;;;39.08;20.08;;;0.50;99.90;;;;;;5052246;28;20037;-48
2022/03/12 02:40:01;;;;;;;27.50;16.92;;;;;;;;;;5027052;28;20465;-47
2022/03/12 02:42:28;;;;;;;30.70;18.08;;;0.50;99.90;;;;;;5040766;28;20040;-47
2022/03/12 02:44:54;;;;;;;28.88;19.27;;;;;;;;;;5035499;28;20034;-47
2022/03/12 02:47:27;;;;;;;31.05;18.80;;;;;;;;;;5037527;28;20033;-47
2022/03/12 02:49:54;;;;;;;28.60;17.77;;;;;;;;;;5032786;28;20033;-48
2022/03/12 02:52:22;;;;;;;28.50;17.80;;;;;;;;;;5036024;28;20034;-47
2022/03/12 02:54:49;;;;;;;28.92;16.83;;;;;;;;;;5038601;28;20116;-47
2022/03/12 02:57:15;;;;;;;26.60;16.90;;;;;;;;;;5041328;28;20119;-47
2022/03/12 02:59:43;;;;;;;26.92;17.15;;;;;;;;;;5036524;28;20017;-47
2022/03/12 03:02:11;;;;;;;28.67;16.73;;;0.60;93.30;;;;;;5036556;28;20055;-47
2022/03/12 03:04:40;;;;;;;25.55;16.77;;;0.50;91.40;;;;;;5036220;28;20025;-48
2022/03/12 03:07:08;;;;;;;28.13;16.88;;;0.00;91.90;;;;;;5037659;28;20068;-47
2022/03/12 03:09:35;;;;;;;25.85;17.25;;;-0.10;92.60;;;;;;5034504;28;20052;-48
2022/03/12 03:12:03;;;;;;;32.15;17.95;;;-0.20;92.70;;;;;;5027252;28;20116;-47
2022/03/12 03:14:29;;;;;;;28.15;17.15;;;0.00;92.40;;;;;;5036714;28;20025;-47
2022/03/12 03:16:58;;;;;;;26.45;16.10;;;0.10;92.00;;;;;;5024047;28;20026;-48
2022/03/12 03:19:26;;;;;;;26.40;16.70;;;-0.10;91.90;;;;;;5037708;28;20064;-47
2022/03/12 03:21:57;;;;;;;28.13;16.83;;;-0.20;92.50;;;;;;5035322;28;20025;-47
2022/03/12 03:24:24;;;;;;;28.35;16.42;;;0.00;92.30;;;;;;5028390;28;20198;-47
2022/03/12 03:26:53;;;;;;;32.30;17.10;;;0.10;92.50;;;;;;5048731;28;20053;-47
2022/03/12 03:29:22;;;;;;;24.63;15.93;;;0.10;92.60;;;;;;5037612;28;20030;-50
2022/03/12 03:31:48;;;;;;;26.10;15.93;;;0.20;92.70;;;;;;5030973;28;20041;-47
2022/03/12 03:34:16;;;;;;;26.05;16.75;;;0.10;92.60;;;;;;5038716;28;20099;-47
2022/03/12 03:36:41;;;;;;;25.45;16.95;;;0.10;92.60;;;;;;5040660;28;20033;-48
2022/03/12 03:39:08;;;;;;;25.23;14.88;;;0.10;92.60;;;;;;5041091;28;20397;-48
2022/03/12 03:41:34;;;;;;;24.95;15.55;;;0.00;92.50;;;;;;5037264;28;20033;-47
2022/03/12 03:44:00;;;;;;;26.33;15.02;;;-0.10;92.50;;;;;;5041678;28;20477;-47
2022/03/12 03:46:26;;;;;;;25.33;17.10;;;-0.20;92.70;;;;;;5039830;28;20027;-48
2022/03/12 03:48:53;;;;;;;30.83;19.30;;;-0.30;92.80;;;;;;5040497;28;20385;-47
2022/03/12 03:51:20;;;;;;;27.55;18.00;;;-0.30;93.00;;;;;;5037621;28;20021;-47
2022/03/12 03:53:47;;;;;;;24.98;15.63;;;-0.20;92.60;;;;;;5039085;28;20026;-48
2022/03/12 03:56:12;;;;;;;28.27;17.02;;;-0.20;92.40;;;;;;5041135;28;20569;-48
2022/03/12 03:58:38;;;;;;;32.47;17.95;;;-0.20;92.80;;;;;;5030065;28;20062;-47
2022/03/12 04:01:12;;;;;;;33.47;17.25;;;-0.10;92.70;;;;;;5036500;28;20392;-48
2022/03/12 04:03:49;;;;;;;32.00;19.25;;;-0.20;92.40;;;;;;5038875;28;20083;-47
2022/03/12 04:06:17;;;;;;;33.72;17.88;;;-0.20;92.40;;;;;;5056641;28;20041;-47
2022/03/12 04:08:43;;;;;;;40.22;21.67;;;-0.10;92.60;;;;;;5040076;28;20040;-48
2022/03/12 04:11:18;;;;;;;31.58;19.33;;;0.00;92.40;;;;;;5044689;28;20036;-48
2022/03/12 04:13:46;;;;;;;28.55;17.45;;;0.10;92.20;;;;;;5053106;28;20037;-47
2022/03/12 04:16:13;;;;;;;34.60;19.65;;;0.10;91.90;;;;;;5041795;28;20033;-47
2022/03/12 04:18:42;;;;;;;31.63;18.27;;;0.20;91.70;;;;;;5038517;28;20037;-47
2022/03/12 04:21:09;;;;;;;27.88;17.45;;;0.30;91.60;;;;;;5051759;28;20049;-48
2022/03/12 04:23:35;;;;;;;30.35;18.70;;;0.40;91.50;;;;;;5042772;28;20061;-47
2022/03/12 04:26:02;;;;;;;28.30;17.13;;;0.40;91.50;;;;;;5041857;28;20105;-47
2022/03/12 04:28:33;;;;;;;25.55;16.40;;;0.40;91.60;;;;;;5039976;28;20112;-47
2022/03/12 04:31:03;;;;;;;35.33;17.20;;;0.40;91.60;;;;;;5037942;28;20030;-48
2022/03/12 04:33:29;;;;;;;27.63;15.40;;;0.20;91.70;;;;;;5041845;28;20124;-47
2022/03/12 04:35:57;;;;;;;21.08;13.80;;;0.20;91.60;;;;;;5042048;28;20032;-47
2022/03/12 04:38:23;;;;;;;29.92;14.75;;;0.00;91.70;;;;;;5036339;28;20056;-48
2022/03/12 04:40:49;;;;;;;29.27;14.93;;;-0.40;91.90;;;;;;5037727;28;20029;-47
2022/03/12 04:43:15;;;;;;;23.33;14.20;;;-0.30;91.90;;;;;;5037823;28;20030;-47
2022/03/12 04:45:45;;;;;;;22.95;13.93;;;-0.50;92.20;;;;;;5032903;28;20060;-47
2022/03/12 04:48:14;;;;;;;25.55;15.43;;;-0.50;92.20;;;;;;5036958;28;20175;-47
2022/03/12 04:50:40;;;;;;;23.20;14.63;;;-0.50;92.20;;;;;;5042754;28;20030;-47
2022/03/12 04:53:08;;;;;;;22.08;14.40;;;;;;;;;;5036616;28;20064;-49
2022/03/12 04:55:36;;;;;;;23.25;14.63;;;-0.70;92.30;;;;;;5040637;28;20029;-47
2022/03/12 04:58:07;;;;;;;23.27;14.90;;;-1.00;93.00;;;;;;5039023;28;20473;-47
2022/03/12 05:00:38;;;;;;;22.85;14.68;;;-1.10;93.10;;;;;;5043408;28;20535;-47
2022/03/12 05:03:11;;;;;;;25.73;16.10;;;-1.30;93.70;;;;;;5031017;28;20480;-47
2022/03/12 05:05:40;;;;;;;25.67;15.18;;;-1.50;93.90;;;;;;5035520;28;20033;-47
2022/03/12 05:08:14;;;;;;;27.08;14.63;;;-1.60;93.90;;;;;;5040679;28;20071;-49
2022/03/12 05:10:40;;;;;;;24.70;16.10;;;-1.70;94.00;;;;;;5037311;28;20029;-47
2022/03/12 05:13:06;;;;;;;31.88;18.85;;;-1.80;94.40;;;;;;5035529;28;20026;-48
2022/03/12 05:15:37;;;;;;;28.60;18.70;;;-1.60;94.20;;;;;;5095870;28;20056;-47
2022/03/12 05:18:08;;;;;;;28.23;16.13;;;-1.30;94.00;;;;;;5093958;28;20123;-47
2022/03/12 05:20:36;;;;;;;26.30;16.88;;;-1.40;93.80;;;;;;5062303;28;20142;-47
2022/03/12 05:23:03;;;;;;;28.63;18.90;;;-1.40;94.00;;;;;;5086945;28;20097;-47
2022/03/12 05:25:31;;;;;;;29.15;18.95;;;-1.30;94.10;;;;;;5093289;28;20039;-47
2022/03/12 05:27:57;;;;;;;33.80;20.95;;;-1.30;94.00;;;;;;5096216;28;20044;-47
2022/03/12 05:30:23;;;;;;;35.33;22.02;;;-1.40;94.10;;;;;;5097276;28;20067;-47
2022/03/12 05:32:50;;;;;;;29.52;18.27;;;-1.30;94.10;;;;;;5095394;28;20509;-47
2022/03/12 05:35:20;;;;;;;30.40;18.55;;;-1.40;94.20;;;;;;5092188;28;20125;-47
2022/03/12 05:37:48;;;;;;;72.25;38.67;;;-1.50;94.30;;;;;;5095589;28;20051;-48
2022/03/12 05:40:18;;;;;;;231.65;119.75;;;-1.60;94.30;;;;;;5094817;28;20035;-47
2022/03/12 05:42:45;;;;;;;145.20;86.28;;;-1.60;94.40;;;;;;5093484;28;20028;-47
2022/03/12 05:45:12;;;;;;;83.28;52.05;;;-1.40;95.10;;;;;;5091769;28;20032;-48
2022/03/12 05:47:41;;;;;;;43.65;27.10;;;-1.20;95.90;;;;;;5039751;28;20041;-48
2022/03/12 05:50:09;;;;;;;33.63;20.65;;;-0.80;95.50;;;;;;5037566;28;20021;-47
2022/03/12 05:52:40;;;;;;;29.23;19.52;;;-0.60;93.70;;;;;;5028306;28;20032;-47
2022/03/12 05:55:08;;;;;;;32.53;18.45;;;-0.40;93.80;;;;;;5031803;28;20144;-47
2022/03/12 05:57:37;;;;;;;27.58;17.83;;;-0.30;93.60;;;;;;5037918;28;20382;-47
2022/03/12 06:00:05;;;;;;;31.55;17.38;;;-0.20;93.70;;;;;;5039739;28;20025;-48
2022/03/12 06:02:31;;;;;;;27.77;17.80;;;-0.10;93.50;;;;;;5010899;28;20078;-47
2022/03/12 06:04:58;;;;;;;26.33;15.90;;;0.00;92.80;;;;;;5032485;28;20040;-48
2022/03/12 06:07:24;;;;;;;29.10;19.05;;;-0.20;92.70;;;;;;5036681;28;20041;-47
2022/03/12 06:09:50;;;;;;;30.77;19.05;;;-0.20;93.00;;;;;;5038166;28;20024;-48
2022/03/12 06:12:17;;;;;;;24.75;16.30;;;-0.10;93.60;;;;;;5035377;28;20027;-48
2022/03/12 06:14:47;;;;;;;22.52;14.43;;;-0.10;92.70;;;;;;5035701;28;20101;-48
2022/03/12 06:17:14;;;;;;;35.30;18.08;;;-0.30;92.60;;;;;;5038959;28;20033;-47
2022/03/12 06:19:40;;;;;;;27.27;17.92;;;-0.30;93.20;;;;;;5033872;28;20382;-47
2022/03/12 06:22:06;;;;;;;26.20;16.90;;;-0.30;93.40;;;;;;5032121;28;20025;-47
2022/03/12 06:24:31;;;;;;;27.33;18.00;;;0.10;93.30;;;;;;5032207;28;20024;-47
2022/03/12 06:26:58;;;;;;;29.52;18.17;;;0.40;93.50;;;;;;5034214;28;20029;-48
2022/03/12 06:29:24;;;;;;;27.90;17.35;;;0.50;93.30;;;;;;5034663;28;20061;-47
2022/03/12 06:31:49;;;;;;;25.50;16.05;;;0.30;93.20;;;;;;5037492;28;20096;-47
2022/03/12 06:34:17;;;;;;;38.75;24.10;;;0.20;92.90;;;;;;5032003;28;20469;-47
2022/03/12 06:36:44;;;;;;;32.65;18.92;;;0.30;92.80;;;;;;5033751;28;20141;-47
2022/03/12 06:39:10;;;;;;;31.33;19.65;;;0.50;92.60;;;;;;5038760;28;20033;-49
2022/03/12 06:41:43;;;;;;;29.23;15.10;;;0.50;92.40;;;;;;5034324;28;20104;-47
2022/03/12 06:44:10;;;;;;;201.38;79.60;;;0.40;92.60;;;;;;5036361;28;20519;-48
2022/03/12 06:46:36;;;;;;;82.93;41.60;;;;;;;;;;5032991;28;20044;-47
2022/03/12 06:49:04;;;;;;;30.15;19.58;;;1.10;99.90;;;;;;5036797;28;20041;-47
2022/03/12 06:51:32;;;;;;;275.48;86.38;;;1.30;92.00;;;;;;5034271;28;20080;-47
2022/03/12 06:53:57;;;;;;;151.05;49.35;;;1.40;91.70;;;;;;5033791;28;20501;-47
2022/03/12 06:56:23;;;;;;;172.77;48.80;;;1.30;90.60;;;;;;5034368;28;20068;-48
2022/03/12 06:58:49;;;;;;;95.78;32.03;;;1.30;90.10;;;;;;5032488;28;20057;-47
2022/03/12 07:01:15;;;;;;;29.90;16.42;;;;;;;;;;5032696;28;20052;-48
2022/03/12 07:03:41;;;;;;;24.55;15.93;;;;;;;;;;5033266;28;20025;-47
2022/03/12 07:06:08;;;;;;;35.65;20.67;;;;;;;;;;5032413;28;20021;-47
2022/03/12 07:08:35;;;;;;;147.02;47.40;;;;;;;;;;5033270;28;20416;-47
2022/03/12 07:11:02;;;;;;;42.70;16.80;;;2.40;90.10;;;;;;5030961;28;20033;-47
2022/03/12 07:13:28;;;;;;;134.85;47.92;;;2.50;89.20;;;;;;5034062;28;20432;-49
2022/03/12 07:15:54;;;;;;;28.92;17.80;;;2.70;87.20;;;;;;5033061;28;20037;-47
2022/03/12 07:18:20;;;;;;;43.10;20.40;;;3.20;86.80;;;;;;5049463;28;20124;-50
2022/03/12 07:20:47;;;;;;;60.38;28.17;;;3.80;85.30;;;;;;5031580;28;20116;-50
2022/03/12 07:23:12;;;;;;;144.18;59.20;;;4.30;85.60;;;;;;5033688;28;20500;-50
2022/03/12 07:25:38;;;;;;;62.28;32.50;;;4.50;82.90;;;;;;5038105;28;20108;-51
2022/03/12 07:28:05;;;;;;;27.40;18.30;;;5.00;85.10;;;;;;5033852;28;20489;-48
2022/03/12 07:30:31;;;;;;;31.35;18.38;;;4.70;85.00;;;;;;5035564;28;20420;-49
2022/03/12 07:32:57;;;;;;;32.13;17.92;;;5.30;85.10;;;;;;5034835;28;20041;-49
2022/03/12 07:35:22;;;;;;;29.00;16.15;;;5.20;83.20;;;;;;5035030;28;20052;-50
2022/03/12 07:37:49;;;;;;;26.35;16.08;;;;;;;;;;5033545;28;20041;-49
2022/03/12 07:40:16;;;;;;;29.83;17.20;;;5.60;81.70;;;;;;5035665;28;20484;-50
2022/03/12 07:42:42;;;;;;;57.83;28.48;;;6.30;84.30;;;;;;5049704;28;20127;-49
2022/03/12 07:45:10;;;;;;;34.63;19.73;;;5.50;82.40;;;;;;5033082;28;20026;-51
2022/03/12 07:47:35;;;;;;;31.55;18.25;;;5.50;81.10;;;;;;5036622;28;20409;-49
2022/03/12 07:50:02;;;;;;;28.67;18.15;;;5.10;83.20;;;;;;5035535;28;20033;-49
2022/03/12 07:52:28;;;;;;;40.92;20.95;;;5.80;81.70;;;;;;5031814;28;20096;-51
2022/03/12 07:54:54;;;;;;;36.15;17.60;;;5.90;81.80;;;;;;5034864;28;20025;-50
2022/03/12 07:57:19;;;;;;;29.95;14.60;;;6.40;80.40;;;;;;5082987;28;20038;-49
2022/03/12 07:59:46;;;;;;;40.20;24.55;;;5.60;79.50;;;;;;5034820;28;20037;-50
2022/03/12 08:02:12;;;;;;;92.20;44.00;;;5.70;80.00;;;;;;5036543;28;20037;-51
2022/03/12 08:04:38;;;;;;;27.60;16.05;;;6.10;79.60;;;;;;5035023;28;20084;-50
2022/03/12 08:07:04;;;;;;;20.80;12.50;;;7.10;79.30;;;;;;5033400;28;20065;-50
2022/03/12 08:09:31;;;;;;;25.30;15.73;;;6.50;78.60;;;;;;4996263;28;20552;-49
2022/03/12 08:11:58;;;;;;;31.23;20.65;;;6.70;79.40;;;;;;5036255;28;20033;-51
2022/03/12 08:14:24;;;;;;;29.35;18.60;;;6.70;78.80;;;;;;5037245;28;20040;-52
2022/03/12 08:16:52;;;;;;;22.00;14.02;;;7.00;77.80;;;;;;5033026;28;20031;-49
2022/03/12 08:19:19;;;;;;;27.42;17.10;;;7.80;76.30;;;;;;5031989;28;20115;-50
2022/03/12 08:21:46;;;;;;;26.55;16.85;;;7.60;77.30;;;;;;5038653;28;20029;-51
2022/03/12 08:24:15;;;;;;;19.23;13.82;;;;;;;;;;5034208;28;20179;-51
2022/03/12 08:26:45;;;;;;;25.23;14.80;;;9.40;73.50;;;;;;5038414;28;20113;-50
2022/03/12 08:29:12;;;;;;;17.60;11.95;;;9.30;74.20;;;;;;5036301;28;20028;-51
2022/03/12 08:31:39;;;;;;;20.27;15.35;;;9.80;81.10;;;;;;5040388;28;20128;-51
2022/03/12 08:34:06;;;;;;;21.08;13.90;;;9.10;80.40;;;;;;5037112;28;20117;-50
2022/03/12 08:36:32;;;;;;;19.90;14.20;;;9.70;75.10;;;;;;5039555;28;20108;-50
2022/03/12 08:38:58;;;;;;;21.33;12.23;;;10.30;74.60;;;;;;5038140;28;20108;-51
2022/03/12 08:41:25;;;;;;;17.27;11.02;;;9.40;73.20;;;;;;5035170;28;20030;-50
2022/03/12 08:43:51;;;;;;;32.03;15.38;;;9.60;72.30;;;;;;5034897;28;20083;-49
2022/03/12 08:46:18;;;;;;;23.10;15.65;;;10.80;73.40;;;;;;5032083;28;20033;-50
2022/03/12 08:48:44;;;;;;;23.10;14.43;;;12.00;72.00;;;;;;5032232;28;20481;-49
2022/03/12 08:51:10;;;;;;;25.30;13.85;;;12.50;70.90;;;;;;5036100;28;20033;-50
2022/03/12 08:53:36;;;;;;;22.40;14.13;;;12.10;70.40;;;;;;5035271;28;20377;-48
2022/03/12 08:56:03;;;;;;;29.13;15.70;;;12.00;69.10;;;;;;5025138;28;20414;-47
2022/03/12 08:58:30;;;;;;;22.40;14.43;;;13.00;92.40;;;;;;5033531;28;20029;-50
2022/03/12 09:01:00;;;;;;;18.20;13.52;;;12.40;68.90;;;;;;5034508;28;20043;-48
2022/03/12 09:03:27;;;;;;;20.20;13.77;;;;;;;;;;5035322;28;20513;-48
2022/03/12 09:05:53;;;;;;;24.25;15.13;;;;;;;;;;5035150;28;20030;-48
2022/03/12 09:08:19;;;;;;;24.80;15.95;;;13.40;75.90;;;;;;5034408;28;20520;-50
2022/03/12 09:10:46;;;;;;;22.77;14.13;;;13.00;68.90;;;;;;5034515;28;20462;-47
2022/03/12 09:13:13;;;;;;;25.52;15.65;;;;;;;;;;5032929;28;20436;-50
2022/03/12 09:15:40;;;;;;;21.63;14.52;;;16.90;69.00;;;;;;5026605;28;20771;-48
2022/03/12 09:18:07;;;;;;;24.15;15.60;;;;;;;;;;5032256;28;20045;-45
2022/03/12 09:20:40;;;;;;;22.52;14.98;;;;;;;;;;5041502;28;20137;-48
2022/03/12 09:23:07;;;;;;;23.05;15.95;;;;;;;;;;5079000;28;20045;-45
2022/03/12 09:25:33;;;;;;;22.60;16.33;;;;;;;;;;5032311;28;20029;-48
2022/03/12 09:27:59;;;;;;;24.85;15.50;;;;;;;;;;5039420;28;20466;-48
2022/03/12 09:30:26;;;;;;;20.05;15.00;;;;;;;;;;5037946;28;20112;-47
2022/03/12 09:32:53;;;;;;;17.45;13.43;;;15.00;62.70;;;;;;5034230;28;20057;-47
2022/03/12 09:35:19;;;;;;;21.13;14.77;;;15.20;63.50;;;;;;5083839;28;20051;-46
2022/03/12 09:37:46;;;;;;;46.00;29.45;;;15.30;64.20;;;;;;5037675;28;20067;-48
2022/03/12 09:40:15;;;;;;;130.48;116.47;;;15.40;64.60;;;;;;5033795;28;20080;-46
2022/03/12 09:42:41;;;;;;;34.15;16.70;;;15.80;64.30;;;;;;5037250;28;20056;-48
2022/03/12 09:45:08;;;;;;;32.35;22.23;;;14.30;63.30;;;;;;5035097;28;20079;-48
2022/03/12 09:47:34;;;;;;;23.95;17.52;;;14.90;65.20;;;;;;5033961;28;20132;-48
2022/03/12 09:50:00;;;;;;;24.85;18.05;;;14.40;63.20;;;;;;5036558;28;20116;-46
2022/03/12 09:52:26;;;;;;;29.95;17.95;;;15.30;64.60;;;;;;5094048;28;20442;-47
2022/03/12 09:54:52;;;;;;;22.27;15.38;;;15.40;62.70;;;;;;5092554;28;20040;-48
2022/03/12 09:57:18;;;;;;;20.73;14.95;;;;;;;;;;5061009;28;20032;-48
2022/03/12 09:59:44;;;;;;;22.92;14.07;;;15.10;60.70;;;;;;5096853;28;20099;-46
2022/03/12 10:02:10;;;;;;;17.65;12.85;;;14.70;59.50;;;;;;5092242;28;20041;-48
2022/03/12 10:04:36;;;;;;;17.92;12.55;;;14.30;59.60;;;;;;5093240;28;20031;-47
2022/03/12 10:07:02;;;;;;;18.60;13.20;;;13.50;59.40;;;;;;5092371;28;20123;-47
2022/03/12 10:09:27;;;;;;;20.73;13.77;;;13.20;59.70;;;;;;5055905;28;20368;-48
2022/03/12 10:11:54;;;;;;;19.60;13.65;;;13.70;59.40;;;;;;5053199;28;20032;-47
2022/03/12 10:14:24;;;;;;;19.08;13.30;;;14.90;60.50;;;;;;5094660;28;20173;-49
2022/03/12 10:16:50;;;;;;;18.05;13.15;;;14.70;59.00;;;;;;5092287;28;20031;-46
2022/03/12 10:19:18;;;;;;;21.38;14.23;;;;;;;;;;5061825;28;20048;-46
2022/03/12 10:21:45;;;;;;;22.35;12.55;;;;;;;;;;5060553;28;20032;-47
2022/03/12 10:24:14;;;;;;;15.07;11.18;;;14.50;58.80;;;;;;5046318;28;20037;-47
2022/03/12 10:26:42;;;;;;;21.02;13.38;;;14.40;57.40;;;;;;5033266;28;20111;-47
2022/03/12 10:29:12;;;;;;;18.33;13.90;;;15.70;72.50;;;;;;5036386;28;20030;-48
2022/03/12 10:31:41;;;;;;;17.40;13.45;;;14.50;72.40;;;;;;5033618;28;20057;-49
2022/03/12 10:34:26;;;;;;;19.55;13.02;;;14.90;75.10;;;;;;5035188;28;20718;-48
2022/03/12 10:36:54;;;;;;;18.65;11.73;;;14.50;74.00;;;;;;5033613;28;20112;-48
2022/03/12 10:39:35;;;;;;;18.08;12.13;;;14.20;58.60;;;;;;5036502;28;20152;-48
2022/03/12 10:42:09;;;;;;;17.50;13.38;;;14.00;58.50;;;;;;4991497;28;20057;-48
2022/03/12 10:44:39;;;;;;;16.05;13.07;;;15.20;58.60;;;;;;5033869;28;20029;-49
2022/03/12 10:47:22;;;;;;;18.60;13.57;;;15.90;58.50;;;;;;5033113;28;20493;-46
2022/03/12 10:49:58;;;;;;;20.20;14.55;;;;;;;;;;5034365;28;20034;-47
2022/03/12 10:52:30;;;;;;;18.05;13.73;;;16.30;84.00;;;;;;5034501;28;20393;-46
2022/03/12 10:54:57;;;;;;;15.98;13.32;;;16.70;60.80;;;;;;5035269;28;20056;-48
2022/03/12 10:57:22;;;;;;;26.10;14.60;;;17.00;57.30;;;;;;5035048;28;20036;-49
2022/03/12 10:59:55;;;;;;;19.23;12.30;;;;;;;;;;5033643;28;20372;-48
2022/03/12 11:02:22;;;;;;;17.85;13.73;;;;;;;;;;5034807;28;20033;-46
2022/03/12 11:04:48;;;;;;;16.98;13.00;;;;;;;;;;5034972;28;20029;-47
2022/03/12 11:07:25;;;;;;;16.95;12.40;;;16.00;93.60;;;;;;5036584;28;20033;-47
2022/03/12 11:09:53;;;;;;;19.63;12.95;;;14.50;58.00;;;;;;5045921;28;20505;-48
2022/03/12 11:12:35;;;;;;;18.23;11.13;;;14.50;57.60;;;;;;5033846;28;20064;-49
2022/03/12 11:15:15;;;;;;;19.75;11.63;;;15.30;57.60;;;;;;5035389;28;20500;-47
2022/03/12 11:17:47;;;;;;;81.32;72.40;;;16.20;57.50;;;;;;5050551;28;20045;-46
2022/03/12 11:20:36;;;;;;;20.30;13.07;;;15.60;56.60;;;;;;5032472;28;20384;-47
2022/03/12 11:23:13;;;;;;;15.80;11.73;;;16.40;56.80;;;;;;5024723;28;20490;-45
2022/03/12 11:25:57;;;;;;;16.70;12.02;;;14.90;57.30;;;;;;5049301;28;20036;-46
2022/03/12 11:28:24;;;;;;;16.98;12.25;;;14.60;58.20;;;;;;5092280;28;20385;-47
2022/03/12 11:30:53;;;;;;;18.40;12.70;;;15.20;58.80;;;;;;5095298;28;20032;-45
2022/03/12 11:33:21;;;;;;;15.43;12.13;;;15.90;56.80;;;;;;5091294;28;20048;-45
2022/03/12 11:35:49;;;;;;;17.15;11.43;;;16.20;56.20;;;;;;5091812;28;20119;-46
2022/03/12 11:38:18;;;;;;;20.45;13.60;;;16.80;55.70;;;;;;5092555;28;20028;-46
2022/03/12 11:40:46;;;;;;;17.13;12.07;;;;;;;;;;5090184;28;20044;-45
2022/03/12 11:43:23;;;;;;;15.18;11.65;;;;;;;;;;5091951;28;20123;-46
2022/03/12 11:45:49;;;;;;;51.50;17.45;;;;;;;;;;5092054;28;20179;-46
2022/03/12 11:48:15;;;;;;;18.13;12.15;;;;;;;;;;5093296;28;20421;-45
2022/03/12 11:50:41;;;;;;;17.50;12.75;;;14.50;74.80;;;;;;5090246;28;20040;-46
2022/03/12 11:53:08;;;;;;;15.90;11.50;;;14.80;62.50;;;;;;5091850;28;20028;-47
2022/03/12 11:55:34;;;;;;;17.17;12.18;;;12.60;57.80;;;;;;5091578;28;20471;-47
2022/03/12 11:58:00;;;;;;;16.65;11.98;;;13.30;58.70;;;;;;5037284;28;20045;-46
2022/03/12 12:00:30;;;;;;;16.83;12.38;;;13.30;58.50;;;;;;5049204;28;20470;-47
2022/03/12 12:02:57;;;;;;;21.02;14.80;;;12.80;57.30;;;;;;5085431;28;20358;-46
2022/03/12 12:05:25;;;;;;;15.50;11.70;;;13.60;58.10;;;;;;5036494;28;20044;-48
2022/03/12 12:07:52;;;;;;;16.02;11.32;;;14.10;58.10;;;;;;5037198;28;20080;-47
2022/03/12 12:10:29;;;;;;;16.00;12.13;;;13.70;57.50;;;;;;5035521;28;20021;-46
2022/03/12 12:12:58;;;;;;;17.73;11.60;;;14.00;57.60;;;;;;5036331;28;20034;-48
2022/03/12 12:15:29;;;;;;;16.08;11.82;;;14.10;57.50;;;;;;5038840;28;20591;-46
2022/03/12 12:17:56;;;;;;;15.93;11.60;;;13.70;57.40;;;;;;5037431;28;20043;-47
2022/03/12 12:20:22;;;;;;;17.10;12.20;;;13.70;56.60;;;;;;5054174;28;20056;-47
2022/03/12 12:22:49;;;;;;;17.48;11.93;;;14.10;57.90;;;;;;5026186;28;20103;-47
2022/03/12 12:25:16;;;;;;;14.90;11.45;;;14.90;57.70;;;;;;5010039;28;20441;-48
2022/03/12 12:27:52;;;;;;;21.88;12.60;;;15.40;55.30;;;;;;5028847;28;20100;-47
2022/03/12 12:30:38;;;;;;;17.77;12.25;;;15.50;55.90;;;;;;5028143;28;20033;-47
2022/03/12 12:33:16;;;;;;;21.25;14.13;;;15.60;55.70;;;;;;5029444;28;20081;-45
2022/03/12 12:35:42;;;;;;;20.00;12.90;;;15.40;56.30;;;;;;5014458;28;20049;-47
2022/03/12 12:38:10;;;;;;;16.65;11.02;;;15.80;55.70;;;;;;5017714;28;20038;-45
2022/03/12 12:40:54;;;;;;;18.55;11.88;;;13.80;54.80;;;;;;5028028;28;20484;-48
2022/03/12 12:43:22;;;;;;;19.25;11.95;;;14.90;55.50;;;;;;5022359;28;20456;-45
2022/03/12 12:45:53;;;;;;;22.75;14.38;;;15.10;56.50;;;;;;5015651;28;20091;-47
2022/03/12 12:48:33;;;;;;;39.78;30.23;;;15.40;54.30;;;;;;5020749;28;20045;-48
2022/03/12 12:51:15;;;;;;;18.45;12.73;;;15.60;55.00;;;;;;5023075;28;20029;-47
2022/03/12 12:53:48;;;;;;;20.27;12.80;;;13.80;54.80;;;;;;5029397;28;20037;-46
2022/03/12 12:56:21;;;;;;;32.88;20.40;;;14.40;55.60;;;;;;5034472;28;20117;-45